Terminal Aerodrome Forecast
Issued by NWS Charleston, WV

Current Version | Previous Version | Text Only | Print | Product List | Glossary On
Versions: 1 2 3 4 5 6 7 8 9 10 11 12 13 14 15 16 17 18 19 20 21 22 23 24 25 26 27 28 29
000
FTUS41 KRLX 252300 RRA
TAFBKW
TAF
KBKW 252343Z 2600/2624 VRB03KT 4SM SHRA BR VCTS OVC006CB
     FM260500 01008KT 3SM -SHRA BR OVC004
     FM261100 34009KT 5SM BR OVC006
     FM261500 33010G17KT P6SM OVC015
     FM261800 34011G18KT P6SM BKN030
     FM262100 35010G16KT P6SM BKN040=

USA.gov is the U.S. government's official web portal to all federal, state and local government web resources and services.